KLSE

La Crosse Regional Airport

La Crosse, Wisconsin, USA
KLSE 181720Z 1818/1918 14004KT P6SM SCT060 FM190800 15005KT P6SM BKN050 FM191400 15008KT P6SM VCSH BKN045
Issued Valid From Valid To
Jul-18 @ 17:20 UTC
(5 hours ago)
Jul-18 @ 18:00 UTC
(4 hours ago)
Jul-19 @ 18:00 UTC
(in 20 hours)
Jul-18 @ 18:00 to Jul-19 @ 08:00
KLSE 181720Z 1818/1918 14004KT P6SM SCT060
Wind Visibility Clouds
140° at 4 knots Greater than 6 miles
  • Scattered at 6,000' AGL
From Jul-19 @ 08:00 to Jul-19 @ 14:00
FM190800 15005KT P6SM BKN050
Wind Visibility Clouds
150° at 5 knots Greater than 6 miles
  • Broken at 5,000' AGL
From Jul-19 @ 14:00 to Jul-19 @ 18:00
FM191400 15008KT P6SM VCSH BKN045
Wind Visibility Clouds
150° at 8 knots Greater than 6 miles
  • Broken at 4,500' AGL
KLSE 181720Z 1818/1918 14004KT P6SM SCT060 FM190800 15005KT P6SM BKN050 FM191400 15008KT P6SM VCSH BKN045
Issued Jul-18 @ 17:20 UTC
(5 hours ago)
Valid From Jul-18 @ 18:00 UTC
(4 hours ago)
Valid To Jul-19 @ 18:00 UTC
(in 20 hours)
Jul-18 @ 18:00 - Jul-19 @ 08:00
Wind Visibility
140° at 4 knots Greater than 6 miles
Clouds
  • Scattered at 6,000' AGL
From Jul-19 @ 08:00 - Jul-19 @ 14:00
Wind Visibility
150° at 5 knots Greater than 6 miles
Clouds
  • Broken at 5,000' AGL
From Jul-19 @ 14:00 - Jul-19 @ 18:00
Wind Visibility
150° at 8 knots Greater than 6 miles
Clouds
  • Broken at 4,500' AGL